createdAt,value
2023-03-11T00:02:44.216Z,11.73
2023-03-11T00:05:54.506Z,11.76
2023-03-11T00:09:06.240Z,11.80
2023-03-11T00:12:18.195Z,11.78
2023-03-11T00:15:23.438Z,11.74
2023-03-11T00:18:32.181Z,11.73
2023-03-11T00:21:36.413Z,11.85
2023-03-11T00:24:43.938Z,11.86
2023-03-11T00:28:00.472Z,11.82
2023-03-11T00:31:42.829Z,11.87
2023-03-11T00:39:33.267Z,11.82
2023-03-11T00:43:27.218Z,11.73
2023-03-11T00:47:53.740Z,11.76
2023-03-11T00:52:12.823Z,11.72
2023-03-11T00:56:23.827Z,11.84
2023-03-11T01:00:24.575Z,11.92
2023-03-11T01:04:01.675Z,11.89
2023-03-11T01:11:21.200Z,11.82
2023-03-11T01:14:44.318Z,11.49
2023-03-11T01:21:52.540Z,11.68
2023-03-11T01:25:11.111Z,11.61
2023-03-11T01:28:19.470Z,11.66
2023-03-11T01:31:30.999Z,11.79
2023-03-11T01:34:43.030Z,11.57
2023-03-11T01:37:55.390Z,11.72
2023-03-11T01:41:07.805Z,11.53
2023-03-11T01:44:36.833Z,11.57
2023-03-11T01:47:46.059Z,11.63
2023-03-11T01:50:54.152Z,11.68
2023-03-11T01:54:01.522Z,11.67
2023-03-11T01:57:17.266Z,11.70
2023-03-11T02:00:45.502Z,11.76
2023-03-11T02:04:12.226Z,11.63
2023-03-11T02:07:23.719Z,11.56
2023-03-11T02:10:35.163Z,11.65
2023-03-11T02:13:46.334Z,11.60
2023-03-11T02:16:52.988Z,11.72
2023-03-11T02:20:15.258Z,11.66
2023-03-11T02:23:26.130Z,11.80
2023-03-11T02:26:39.794Z,11.78
2023-03-11T02:29:50.162Z,11.90
2023-03-11T02:32:58.859Z,11.90
2023-03-11T02:36:30.020Z,11.73
2023-03-11T02:39:43.533Z,11.64
2023-03-11T02:43:03.357Z,11.27
2023-03-11T02:46:36.787Z,10.76
2023-03-11T02:49:45.429Z,10.60
2023-03-11T02:52:54.210Z,10.23
2023-03-11T02:56:03.425Z,10.44
2023-03-11T02:59:11.432Z,10.50
2023-03-11T03:02:22.664Z,10.61
2023-03-11T03:05:29.760Z,10.57
2023-03-11T03:08:37.150Z,10.62
2023-03-11T03:11:53.933Z,10.74
2023-03-11T03:15:24.162Z,10.81
2023-03-11T03:18:45.706Z,10.90
2023-03-11T03:21:54.483Z,10.80
2023-03-11T03:25:05.551Z,10.86
2023-03-11T03:28:12.803Z,10.91
2023-03-11T03:31:22.204Z,10.90
2023-03-11T03:34:29.694Z,10.71
2023-03-11T03:37:37.646Z,10.75
2023-03-11T03:40:49.249Z,10.81
2023-03-11T03:44:03.225Z,10.61
2023-03-11T03:47:08.173Z,10.68
2023-03-11T03:50:15.001Z,10.37
2023-03-11T03:53:25.656Z,10.48
2023-03-11T03:57:00.609Z,10.25
2023-03-11T04:00:32.612Z,10.12
2023-03-11T04:03:53.168Z,10.29
2023-03-11T04:07:14.147Z,10.47
2023-03-11T04:10:23.136Z,10.48
2023-03-11T04:13:38.780Z,10.29
2023-03-11T04:17:27.046Z,10.19
2023-03-11T04:20:52.463Z,9.93
2023-03-11T04:24:01.892Z,10.02
2023-03-11T04:27:16.301Z,10.18
2023-03-11T04:30:27.634Z,10.10
2023-03-11T04:33:42.365Z,9.69
2023-03-11T04:36:53.939Z,10.11
2023-03-11T04:40:09.483Z,10.03
2023-03-11T04:46:58.158Z,10.06
2023-03-11T04:50:11.945Z,10.15
2023-03-11T04:53:21.684Z,10.24
2023-03-11T04:56:30.231Z,10.45
2023-03-11T04:59:40.747Z,10.57
2023-03-11T05:02:55.474Z,10.42
2023-03-11T05:06:02.827Z,10.33
2023-03-11T05:09:12.312Z,10.54
2023-03-11T05:12:23.642Z,10.25
2023-03-11T05:15:33.971Z,10.38
2023-03-11T05:18:45.199Z,10.18
2023-03-11T05:21:52.176Z,10.40
2023-03-11T05:25:01.458Z,10.43
2023-03-11T05:28:10.657Z,10.26
2023-03-11T05:31:23.780Z,10.47
2023-03-11T05:34:29.188Z,9.98
2023-03-11T05:37:33.666Z,10.36
2023-03-11T05:40:48.299Z,10.20
2023-03-11T05:44:08.530Z,10.36
2023-03-11T05:47:13.027Z,10.42
2023-03-11T05:50:28.999Z,10.29
2023-03-11T05:53:39.007Z,10.47
2023-03-11T05:56:56.154Z,10.68
2023-03-11T06:00:12.496Z,10.72
2023-03-11T06:03:26.149Z,10.92
2023-03-11T06:06:31.529Z,10.89
2023-03-11T06:09:37.152Z,10.91
2023-03-11T06:12:47.264Z,11.21
2023-03-11T06:16:35.838Z,11.15
2023-03-11T06:19:45.062Z,10.85
2023-03-11T06:22:50.861Z,11.17
2023-03-11T06:26:00.401Z,11.32
2023-03-11T06:29:10.994Z,11.37
2023-03-11T06:32:39.846Z,11.54
2023-03-11T06:35:45.908Z,11.60
2023-03-11T06:38:54.150Z,11.71
2023-03-11T06:42:00.355Z,11.54
2023-03-11T06:45:07.660Z,11.71
2023-03-11T06:48:14.005Z,11.88
2023-03-11T06:51:18.192Z,11.89
2023-03-11T06:54:25.773Z,12.00
2023-03-11T06:57:35.263Z,12.13
2023-03-11T07:00:50.944Z,11.94
2023-03-11T07:04:03.063Z,12.13
2023-03-11T07:07:14.708Z,12.22
2023-03-11T07:10:39.754Z,12.33
2023-03-11T07:13:51.860Z,12.18
2023-03-11T07:17:11.717Z,12.26
2023-03-11T07:20:45.445Z,12.33
2023-03-11T07:23:56.270Z,12.28
2023-03-11T07:27:09.773Z,12.41
2023-03-11T07:30:23.826Z,12.51
2023-03-11T07:33:39.206Z,12.60
2023-03-11T07:37:02.477Z,12.63
2023-03-11T07:40:16.687Z,12.70
2023-03-11T07:43:42.221Z,12.65
2023-03-11T07:47:09.458Z,12.74
2023-03-11T07:50:19.372Z,12.74
2023-03-11T07:53:27.320Z,12.58
2023-03-11T07:56:42.826Z,12.42
2023-03-11T08:00:00.442Z,12.00
2023-03-11T08:03:41.933Z,11.58
2023-03-11T08:06:59.355Z,11.56
2023-03-11T08:10:54.314Z,11.14
2023-03-11T08:18:10.698Z,11.02
2023-03-11T08:21:24.170Z,10.91
2023-03-11T08:24:28.849Z,10.73
2023-03-11T08:27:34.585Z,10.42
2023-03-11T08:30:42.932Z,10.58
2023-03-11T08:33:50.008Z,10.44
2023-03-11T08:36:55.513Z,10.58
2023-03-11T08:40:02.922Z,10.77
2023-03-11T08:43:14.122Z,10.81
2023-03-11T08:46:27.009Z,10.90
2023-03-11T08:50:22.238Z,11.03
2023-03-11T08:53:28.957Z,11.29
2023-03-11T08:56:34.040Z,11.37
2023-03-11T08:59:40.556Z,11.45
2023-03-11T09:02:44.247Z,11.45
2023-03-11T09:05:48.336Z,11.49
2023-03-11T09:08:52.198Z,11.49
2023-03-11T09:16:02.250Z,11.59
2023-03-11T09:19:07.990Z,11.53
2023-03-11T09:22:14.595Z,11.46
2023-03-11T09:25:18.870Z,11.46
2023-03-11T09:28:23.483Z,11.26
2023-03-11T09:31:30.934Z,11.40
2023-03-11T09:34:36.753Z,11.25
2023-03-11T09:37:45.380Z,11.39
2023-03-11T09:41:04.125Z,11.38
2023-03-11T09:44:16.698Z,11.35
2023-03-11T09:47:40.028Z,11.44
2023-03-11T09:50:51.436Z,11.55
2023-03-11T09:54:08.258Z,11.59
2023-03-11T09:57:26.116Z,11.15
2023-03-11T10:00:42.079Z,11.09
2023-03-11T10:04:10.373Z,11.04
2023-03-11T10:07:23.843Z,10.90
2023-03-11T10:10:37.705Z,10.94
2023-03-11T10:13:52.384Z,11.04
2023-03-11T10:17:05.043Z,10.78
2023-03-11T10:20:15.833Z,10.51
2023-03-11T10:23:27.137Z,10.21
2023-03-11T10:26:37.259Z,9.66
2023-03-11T10:29:49.559Z,9.36
2023-03-11T10:33:02.323Z,9.60
2023-03-11T10:36:15.347Z,8.64
2023-03-11T10:39:21.109Z,8.61
2023-03-11T10:42:29.825Z,8.02
2023-03-11T10:45:43.787Z,7.49
2023-03-11T10:48:47.445Z,7.70
2023-03-11T10:51:55.441Z,7.40
2023-03-11T10:55:04.169Z,7.26
2023-03-11T10:58:17.549Z,7.56
2023-03-11T11:01:22.306Z,7.50
2023-03-11T11:04:38.212Z,7.45
2023-03-11T11:07:54.570Z,7.15
2023-03-11T11:11:01.898Z,7.07
2023-03-11T11:14:06.354Z,7.48
2023-03-11T11:17:20.041Z,7.16
2023-03-11T11:20:28.081Z,7.42
2023-03-11T11:23:42.399Z,6.95
2023-03-11T11:27:08.096Z,6.75
2023-03-11T11:30:20.183Z,5.99
2023-03-11T11:33:28.702Z,5.33
2023-03-11T11:36:37.397Z,4.74
2023-03-11T11:39:54.477Z,4.09
2023-03-11T11:43:03.143Z,4.61
2023-03-11T11:46:15.203Z,4.13
2023-03-11T11:49:23.890Z,4.77
2023-03-11T11:52:31.967Z,4.55
2023-03-11T11:55:43.858Z,4.50
2023-03-11T11:58:48.656Z,4.52
2023-03-11T12:02:07.710Z,4.72
2023-03-11T12:05:17.508Z,4.71
2023-03-11T12:08:29.548Z,4.34
2023-03-11T12:11:42.152Z,4.22
2023-03-11T12:14:55.151Z,4.41
2023-03-11T12:18:05.551Z,4.19
2023-03-11T12:21:23.972Z,4.32
2023-03-11T12:24:51.033Z,4.48
2023-03-11T12:28:04.633Z,4.54
2023-03-11T12:31:10.607Z,4.72
2023-03-11T12:34:17.749Z,4.91
2023-03-11T12:37:24.626Z,4.47
2023-03-11T12:40:57.633Z,4.67
2023-03-11T12:44:21.138Z,4.68
2023-03-11T12:47:29.746Z,4.61
2023-03-11T12:50:41.503Z,4.34
2023-03-11T12:53:50.904Z,4.66
2023-03-11T12:56:59.669Z,4.85
2023-03-11T13:00:23.238Z,4.37
2023-03-11T13:03:53.004Z,4.35
2023-03-11T13:07:36.802Z,4.04
2023-03-11T13:10:42.407Z,4.14
2023-03-11T13:13:47.689Z,4.34
2023-03-11T13:16:57.501Z,4.28
2023-03-11T13:20:05.255Z,4.39
2023-03-11T13:23:21.383Z,4.67
2023-03-11T13:26:39.700Z,5.25
2023-03-11T13:29:57.315Z,5.51
2023-03-11T13:33:21.277Z,5.79
2023-03-11T13:36:57.257Z,6.21
2023-03-11T13:40:14.400Z,6.36
2023-03-11T13:43:21.516Z,6.41
2023-03-11T13:46:32.138Z,6.68
2023-03-11T13:49:44.126Z,6.88
2023-03-11T13:52:52.008Z,7.02
2023-03-11T13:55:56.771Z,7.13
2023-03-11T13:59:21.988Z,6.88
2023-03-11T14:02:33.833Z,7.10
2023-03-11T14:05:46.860Z,7.06
2023-03-11T14:08:56.355Z,7.10
2023-03-11T14:12:07.841Z,7.26
2023-03-11T14:15:18.246Z,7.23
2023-03-11T14:18:34.501Z,7.41
2023-03-11T14:21:43.078Z,7.54
2023-03-11T14:24:49.649Z,7.56
2023-03-11T14:27:59.478Z,7.54
2023-03-11T14:31:04.632Z,7.71
2023-03-11T14:34:17.051Z,7.75
2023-03-11T14:37:28.959Z,7.81
2023-03-11T14:40:35.713Z,7.64
2023-03-11T14:43:45.237Z,7.79
2023-03-11T14:51:07.343Z,7.87
2023-03-11T14:54:21.647Z,7.67
2023-03-11T14:57:56.617Z,7.79
2023-03-11T15:01:05.281Z,7.54
2023-03-11T15:04:17.399Z,7.68
2023-03-11T15:07:52.032Z,7.69
2023-03-11T15:11:24.483Z,7.80
2023-03-11T15:14:38.168Z,7.69
2023-03-11T15:17:58.475Z,7.57
2023-03-11T15:21:18.382Z,7.43
2023-03-11T15:24:27.207Z,7.47
2023-03-11T15:27:36.245Z,7.26
2023-03-11T15:30:43.061Z,7.29
2023-03-11T15:33:48.192Z,7.20
2023-03-11T15:37:00.958Z,7.12
2023-03-11T15:40:14.381Z,7.25
2023-03-11T15:43:26.615Z,6.73
2023-03-11T15:47:24.615Z,6.55
2023-03-11T15:50:43.010Z,6.75
2023-03-11T15:53:54.642Z,6.75
2023-03-11T15:57:04.898Z,6.73
2023-03-11T16:00:24.453Z,6.36
2023-03-11T16:03:35.318Z,6.70
2023-03-11T16:06:59.526Z,6.73
2023-03-11T16:10:31.117Z,6.88
2023-03-11T16:13:45.568Z,6.52
2023-03-11T16:17:34.096Z,6.62
2023-03-11T16:21:15.967Z,6.90
2023-03-11T16:25:07.830Z,7.11
2023-03-11T16:29:21.455Z,7.16
2023-03-11T16:34:03.065Z,7.24
2023-03-11T16:37:07.368Z,7.23
2023-03-11T16:40:37.545Z,7.41
2023-03-11T16:44:36.438Z,7.40
2023-03-11T16:48:22.673Z,7.62
2023-03-11T16:51:26.452Z,7.55
2023-03-11T16:54:31.300Z,7.64
2023-03-11T17:02:06.089Z,7.63
2023-03-11T17:06:10.949Z,7.61
2023-03-11T17:09:38.251Z,7.51
2023-03-11T17:13:01.147Z,7.39
2023-03-11T17:16:29.928Z,7.30
2023-03-11T17:19:38.740Z,7.47
2023-03-11T17:22:46.952Z,7.51
2023-03-11T17:25:50.815Z,7.33
2023-03-11T17:29:04.821Z,7.57
2023-03-11T17:32:10.288Z,7.61
2023-03-11T17:35:15.046Z,7.65
2023-03-11T17:38:28.857Z,7.63
2023-03-11T17:41:36.297Z,7.62
2023-03-11T17:44:51.035Z,7.59
2023-03-11T17:48:14.856Z,7.14
2023-03-11T17:51:20.580Z,7.36
2023-03-11T17:54:27.163Z,7.47
2023-03-11T17:57:44.534Z,7.53
2023-03-11T18:00:49.299Z,7.43
2023-03-11T18:03:53.633Z,7.19
2023-03-11T18:06:57.688Z,7.03
2023-03-11T18:10:07.377Z,7.25
2023-03-11T18:13:20.980Z,7.28
2023-03-11T18:17:08.440Z,7.46
2023-03-11T18:20:24.833Z,7.59
2023-03-11T18:23:33.232Z,7.61
2023-03-11T18:26:39.575Z,7.69
2023-03-11T18:29:47.355Z,7.67
2023-03-11T18:32:52.318Z,7.76
2023-03-11T18:36:00.430Z,7.54
2023-03-11T18:39:13.460Z,7.40
2023-03-11T18:42:24.553Z,7.41
2023-03-11T18:45:28.246Z,7.25
2023-03-11T18:48:32.151Z,6.59
2023-03-11T18:51:36.327Z,6.90
2023-03-11T18:54:41.887Z,6.83
2023-03-11T18:57:54.437Z,7.00
2023-03-11T19:01:06.753Z,7.07
2023-03-11T19:04:16.168Z,6.37
2023-03-11T19:07:23.532Z,6.43
2023-03-11T19:10:32.867Z,6.60
2023-03-11T19:13:47.722Z,6.49
2023-03-11T19:16:52.177Z,6.72
2023-03-11T19:19:59.682Z,6.33
2023-03-11T19:23:12.607Z,6.57
2023-03-11T19:26:41.476Z,6.32
2023-03-11T19:29:55.409Z,6.61
2023-03-11T19:33:12.177Z,6.50
2023-03-11T19:36:27.667Z,6.48
2023-03-11T19:39:34.034Z,6.25
2023-03-11T19:43:18.096Z,6.19
2023-03-11T19:55:27.520Z,6.16
2023-03-11T19:58:53.847Z,6.47
2023-03-11T20:02:16.753Z,6.44
2023-03-11T20:05:32.505Z,6.49
2023-03-11T20:08:41.333Z,6.62
2023-03-11T20:11:50.839Z,6.69
2023-03-11T20:14:55.442Z,6.65
2023-03-11T20:18:25.495Z,6.54
2023-03-11T20:21:32.316Z,6.17
2023-03-11T20:24:43.023Z,6.24
2023-03-11T20:27:52.274Z,6.15
2023-03-11T20:30:58.178Z,6.23
2023-03-11T20:34:11.748Z,6.01
2023-03-11T20:37:16.547Z,6.26
2023-03-11T20:40:46.285Z,6.22
2023-03-11T20:44:10.173Z,6.25
2023-03-11T20:53:06.988Z,6.46
2023-03-11T21:01:05.135Z,6.26
2023-03-11T21:04:48.322Z,6.35
2023-03-11T21:07:57.065Z,6.33
2023-03-11T21:11:02.683Z,6.48
2023-03-11T21:14:07.516Z,6.37
2023-03-11T21:17:16.297Z,6.33
2023-03-11T21:20:37.473Z,6.55
2023-03-11T21:23:51.325Z,6.29
2023-03-11T21:27:12.992Z,6.24
2023-03-11T21:30:21.450Z,5.99
2023-03-11T21:33:36.939Z,5.89
2023-03-11T21:36:43.598Z,6.03
2023-03-11T21:39:55.096Z,6.14
2023-03-11T21:43:08.117Z,6.26
2023-03-11T21:46:39.248Z,6.30
2023-03-11T21:49:57.760Z,6.22
2023-03-11T21:53:12.334Z,6.24
2023-03-11T21:57:00.020Z,6.29
2023-03-11T22:00:34.451Z,6.39
2023-03-11T22:04:03.917Z,6.48
2023-03-11T22:07:34.713Z,6.64
2023-03-11T22:11:09.976Z,6.74
2023-03-11T22:15:10.702Z,6.77
2023-03-11T22:18:47.785Z,6.72
2023-03-11T22:23:17.026Z,6.45
2023-03-11T22:27:25.953Z,6.07
2023-03-11T22:31:22.920Z,6.25
2023-03-11T22:34:46.853Z,5.94
2023-03-11T22:38:36.586Z,5.53
2023-03-11T22:42:34.416Z,5.94
2023-03-11T22:45:52.343Z,5.86
2023-03-11T22:49:30.504Z,5.49
2023-03-11T22:53:02.410Z,5.37
2023-03-11T22:56:26.934Z,5.30
2023-03-11T23:00:33.586Z,5.14
2023-03-11T23:04:57.078Z,5.07
2023-03-11T23:13:16.380Z,5.32
2023-03-11T23:17:17.648Z,5.39
2023-03-11T23:21:04.766Z,5.48
2023-03-11T23:24:46.591Z,5.68
2023-03-11T23:28:57.572Z,5.68
2023-03-11T23:33:12.074Z,5.96
2023-03-11T23:36:35.177Z,6.09
2023-03-11T23:45:34.599Z,6.01
2023-03-11T23:48:58.534Z,6.01
2023-03-11T23:52:32.425Z,5.89
2023-03-11T23:55:58.358Z,5.86
